< < Back
Terminal Aerodrome Forecast


Current Version              Previous Versions:   1  2  3  4  5  6  7  8  9  

Terminal Aerodrome Forecast

248
FTUS42 KGSP 261018 AAA
TAFHKY
TAF AMD
KHKY 261018Z 2610/2706 30005KT P6SM SKC
      TEMPO 2610/2613 6SM BR FEW003
     FM261400 33003KT P6SM FEW045
     FM261700 04005KT P6SM FEW200=



Latest METAR

219
SAUS70 KWBC 270600 RRF
MTRHKY
METAR KHKY 270553Z AUTO 00000KT 10SM CLR 23/22 A3013 RMK AO2 SLP178
T02330222 10294 20233 58004


USA.gov is the U.S. government's official web portal to all federal, state and local government web resources and services.